Michele Tagliabue

Recruteur - Palermo
20 Nov 2027
Samedi
Processus

Personnalité

Adaptabilité (15) Ambition (19) Controverse (1) Loyauté (7) Pression (2) Professionnalisme (5) Sportivité (4) Tempérament (12)

Profil

Style d'entraînement Démocratique
Diplôme National B
Détermination 11
Gestion des joueurs 7
Motivation 8
Discipline 7
Satisfaction professionnelle
100%
Fatigue
0%
Rôle Recruteur
Salaire 22.1K p/s
Contrat 14.03.2029

Performance

Comportement Bon
Efficacité de l'entraînement
33%
Développement des joueurs
60%
Prévention des blessures
50%
Mise en place tactique
35%

Événements récents

A participé à une réunion de recrutement 7j
A participé à une réunion de recrutement 14j
A participé à une réunion de recrutement 21j
A participé à une réunion de recrutement 28j
A participé à une réunion de recrutement 35j
A participé à une réunion de recrutement 42j
A participé à une réunion de recrutement 49j
A participé à une réunion de recrutement 56j

Suivi en cours

87
Joueur Club Statut Capacité Confiance Observé Dernière observation Dernier vote
Aleksa Terzić Frosinone Actif 139 / 143 40% 4 29.05.2027 -
Martim Cunha Porto Actif 101 / 101 40% 3 27.05.2027 -
Petar Sučić Inter Actif 143 / 138 40% 2 27.05.2027 -
Simone Canestrelli Pisa Actif 127 / 144 40% 2 27.05.2027 -
Senny Mayulu Paris Saint-Germain Actif 144 / 156 40% 1 27.05.2027 -
Alessandro Buongiorno Sassuolo Actif 162 / 168 40% 3 25.05.2027 -
Juan David Arizala Udinese Actif 129 / 112 40% 2 25.05.2027 -
Facundo Di Biasi Getafe Actif 126 / 123 40% 1 25.05.2027 -
Andrea Carboni Monza Actif 122 / 117 40% 3 23.05.2027 -
Christos Mouzakitis Hull City Actif 138 / 144 40% 1 23.05.2027 -
Nicolò Bertola Udinese Actif 129 / 133 40% 3 22.05.2027 -
Juan Miranda Bologna Actif 146 / 131 40% 2 22.05.2027 -
Rico Lewis Manchester City Actif 141 / 143 40% 2 20.05.2027 -
Jordan Zemura Udinese Actif 141 / 123 40% 1 20.05.2027 -
Stevan Manuel Benfica Actif 87 / 103 40% 1 19.05.2027 -
Gorka Gorosabel Real Sociedad Actif 115 / 111 40% 1 19.05.2027 -
Lewis Ferguson Bologna Actif 151 / 137 40% 3 18.05.2027 -
İsak Vural Pisa Actif 121 / 112 40% 2 16.05.2027 -
Federico Coletta Benfica Actif 89 / 107 40% 1 13.05.2027 -
Paulo Iago Sporting CP Actif 94 / 100 40% 1 13.05.2027 -
Franz-Ethan Meichtry Genoa Actif 117 / 112 40% 1 12.05.2027 -
Luca Lipani Frosinone Actif 121 / 135 40% 1 12.05.2027 -
Álex Valle Como Actif 133 / 149 40% 3 10.05.2027 -
Alex Amorim Genoa Actif 125 / 121 40% 3 08.05.2027 -
Ilario Monterisi Frosinone Actif 120 / 117 40% 1 07.05.2027 -
Mehdi Dorval Catanzaro Actif 132 / 137 40% 1 06.05.2027 -
Diego Rossi Forli Actif 96 / 92 40% 1 05.05.2027 -
Gianluca Busio Venezia Actif 129 / 124 40% 1 04.05.2027 -
Tommaso Pobega Bologna Actif 143 / 139 40% 3 03.05.2027 -
Raoul Bellanova Atalanta Actif 157 / 144 40% 4 02.05.2027 -
Adrián Bernabé Parma Actif 143 / 135 40% 2 02.05.2027 -
Roger François Udinese Actif 140 / 136 40% 4 01.05.2027 -
Tiago Freitas Benfica Actif 118 / 120 40% 1 26.04.2027 -
Surprise Manthosi Polokwane City Actif 84 / 118 40% 1 26.04.2027 -
Samuele Angori Pisa Actif 140 / 132 40% 1 25.04.2027 -
Gladson Sulemana Liberty Professionals Actif 104 / 108 40% 1 23.04.2027 -
Isma Ruiz Córdoba Actif 122 / 125 40% 2 22.04.2027 -
Oumar Solet Udinese Actif 142 / 150 40% 2 20.04.2027 -
Simone Kosijer Triestina Actif 86 / 116 40% 1 20.04.2027 -
Matteo Zazza Altamura Actif 97 / 113 40% 1 20.04.2027 -
Ramón Terrats Getafe Actif 140 / 148 40% 3 17.04.2027 -
Adam Obert Cagliari Actif 137 / 120 40% 1 16.04.2027 -
Luciano Peluso Giugliano Actif 92 / 112 40% 1 13.04.2027 -
Jofre Torrents Ajax Actif 121 / 141 40% 1 12.04.2027 -
Jayden Addai Lazio Actif 140 / 147 40% 1 10.04.2027 -
Nadir Zortea Bologna Actif 136 / 136 40% 1 02.04.2027 -
Mattia Viti Sampdoria Actif 123 / 130 40% 1 24.03.2027 -
Kian Fitz-Jim Torino Actif 137 / 140 40% 1 23.03.2027 -
Christian Krasnodar Actif 134 / 135 40% 1 20.03.2027 -
Jay Idzes Sassuolo Actif 127 / 137 40% 1 20.03.2027 -
Rubens Dinamo Moscow Actif 130 / 121 40% 1 16.03.2027 -
Michele Collocolo Cremonese Actif 137 / 129 40% 1 16.03.2027 -
Trevoh Chalobah Como Actif 161 / 164 40% 1 06.03.2027 -
Carlos Vicente Udinese Actif 153 / 141 40% 4 27.12.2026 -
Nicolò Zaniolo Udinese Actif 147 / 128 40% 2 18.12.2026 -
Tommaso Barbieri Cremonese Actif 134 / 143 40% 2 18.12.2026 -
Santiago Pierotti Lecce Actif 135 / 122 40% 1 15.12.2026 -
Billy Gilmour Napoli Actif 158 / 132 40% 2 12.12.2026 -
Esequiel Barco Spartak Moscow Actif 146 / 146 40% 2 04.12.2026 -
Giacomo Raspadori Atalanta Actif 153 / 151 40% 2 01.12.2026 -
Martin Baturina Como Actif 139 / 150 40% 1 01.12.2026 -
Luca Langoni New England Revolution Actif 127 / 133 40% 2 25.11.2026 -
Lameck Banda Lecce Actif 124 / 118 40% 1 24.11.2026 -
Mattéo Tramoni Pisa Actif 144 / 138 40% 1 23.11.2026 -
David Miculescu FCSB Actif 126 / 124 40% 1 22.11.2026 -
Alessio Zerbin Frosinone Actif 123 / 139 40% 1 22.11.2026 -
Romano Schmid Frosinone Refusé 141 / 156 40% 1 21.11.2026 Plus d'infos
Charles De Ketelaere Atalanta Actif 155 / 152 40% 2 19.11.2026 -
Suleiman Camara Slovan Bratislava Actif 122 / 120 40% 1 19.11.2026 -
Petar Stanić Ludogorets Actif 140 / 140 40% 1 17.11.2026 -
Andrea Cambiaso Juventus Actif 158 / 163 40% 1 16.11.2026 -
Relebohile Mofokeng Orlando Pirates Actif 133 / 134 40% 1 15.11.2026 -
Kelvin Yeboah Minnesota United FC Actif 122 / 120 40% 3 13.11.2026 -
Carlos Augusto Inter Actif 150 / 136 40% 2 11.11.2026 -
Luís Henrique Inter Actif 139 / 133 40% 2 04.11.2026 -
Camilo Durán Bloemfontein Celtic Actif 118 / 138 40% 1 01.11.2026 -
Lucas Da Cunha Como Actif 131 / 157 40% 1 01.11.2026 -
Enzo Le Fée Sunderland Actif 135 / 133 40% 1 26.10.2026 -
Martín Ojeda Orlando City Actif 135 / 133 40% 1 24.10.2026 -
Antonio Vergara Napoli Actif 141 / 123 40% 1 20.10.2026 -
Jadon Sancho Manchester United Actif 160 / 138 40% 1 16.10.2026 -
Alexis Cuello San Lorenzo Actif 136 / 136 40% 2 14.10.2026 -
Alan Lescano Argentinos Juniors Actif 133 / 139 40% 3 13.10.2026 -
Carlos Álvarez Club America Refusé 143 / 151 40% 1 08.10.2026 Plus d'infos
Xavi Simons Tottenham Actif 146 / 153 40% 1 07.10.2026 -
Matteo Gilli Arezzo Actif 94 / 112 51% 1 17.08.2026 -
Andrea Natali AZ Actif 97 / 120 40% 1 01.08.2026 -